Time;durP1;ratioP1;P1;durP2;ratioP2;P2;SDS_P1;SDS_P2;PMS_P1;PMS_P2;Temp;Humidity;BMP_temperature;BMP_pressure;BME280_temperature;BME280_humidity;BME280_pressure;Samples;Min_cycle;Max_cycle;Signal;HPM_P1;HPM_P2
2023/01/17 00:01:05;;;;;;;2.25;0.90;;;3.30;99.90;;;;;;5082121;28;20044;-68
2023/01/17 00:03:32;;;;;;;6.05;0.95;;;3.20;99.90;;;;;;5110093;28;20039;-68
2023/01/17 00:11:27;;;;;;;5.03;0.98;;;3.20;99.90;;;;;;5105336;28;20055;-68
2023/01/17 00:13:52;;;;;;;3.80;0.80;;;3.10;99.90;;;;;;5113244;28;20046;-69
2023/01/17 00:16:18;;;;;;;1.83;0.90;;;3.10;99.90;;;;;;5112862;28;20043;-69
2023/01/17 00:26:01;;;;;;;6.30;1.20;;;3.10;99.90;;;;;;5081646;28;20468;-69
2023/01/17 01:33:37;;;;;;;8.07;1.88;;;3.40;99.90;;;;;;5105658;28;20048;-69
2023/01/17 01:36:05;;;;;;;11.30;2.53;;;3.40;99.90;;;;;;5111731;28;20039;-68
2023/01/17 01:38:31;;;;;;;6.97;2.00;;;3.40;99.90;;;;;;5111256;28;20500;-68
2023/01/17 01:40:56;;;;;;;7.53;1.27;;;3.40;99.90;;;;;;5109479;28;20122;-68
2023/01/17 01:43:48;;;;;;;5.47;1.65;;;3.30;99.90;;;;;;5092250;28;20056;-70
2023/01/17 01:46:40;;;;;;;7.78;1.50;;;3.30;99.90;;;;;;5087224;28;20051;-69
2023/01/17 01:49:23;;;;;;;7.03;1.92;;;3.30;99.90;;;;;;5080321;28;20048;-68
2023/01/17 01:51:59;;;;;;;8.55;1.75;;;3.30;99.90;;;;;;5102201;28;20054;-69
2023/01/17 01:54:31;;;;;;;6.07;1.85;;;3.30;99.90;;;;;;5110141;28;20055;-70
2023/01/17 01:56:59;;;;;;;6.68;1.65;;;3.30;99.90;;;;;;5087565;28;20634;-69
2023/01/17 01:59:25;;;;;;;14.80;2.17;;;3.30;99.90;;;;;;5108686;28;20377;-70
2023/01/17 02:01:54;;;;;;;11.27;2.22;;;3.30;99.90;;;;;;5104389;28;20043;-68
2023/01/17 02:04:22;;;;;;;12.07;2.25;;;3.30;99.90;;;;;;5075243;28;20196;-68
2023/01/17 02:06:52;;;;;;;10.95;1.80;;;3.30;99.90;;;;;;5079854;28;20040;-67
2023/01/17 02:09:19;;;;;;;7.72;1.98;;;3.40;99.90;;;;;;5084977;28;20040;-68
2023/01/17 02:11:47;;;;;;;9.82;2.05;;;3.30;99.90;;;;;;5098912;28;20495;-67
2023/01/17 02:14:17;;;;;;;9.57;2.25;;;3.30;99.90;;;;;;5083695;28;20052;-67
2023/01/17 02:17:10;;;;;;;14.88;2.92;;;3.30;99.90;;;;;;5079379;28;20541;-69
2023/01/17 02:19:58;;;;;;;12.68;1.90;;;3.30;99.90;;;;;;5095915;28;20043;-67
2023/01/17 02:22:48;;;;;;;10.80;2.13;;;3.40;99.90;;;;;;5103387;28;20052;-70
2023/01/17 02:25:36;;;;;;;9.65;2.47;;;3.40;99.90;;;;;;5091864;28;20116;-67
2023/01/17 02:28:46;;;;;;;13.95;2.55;;;3.40;99.90;;;;;;5100565;28;20511;-66
2023/01/17 02:31:34;;;;;;;9.38;2.25;;;3.40;99.90;;;;;;5047573;28;20131;-68
2023/01/17 02:34:20;;;;;;;12.05;2.30;;;3.40;99.90;;;;;;5102313;28;20101;-71
2023/01/17 02:37:14;;;;;;;12.55;2.15;;;3.40;99.90;;;;;;5082506;28;20205;-69
2023/01/17 02:40:03;;;;;;;10.10;2.55;;;3.40;99.90;;;;;;5072928;28;20055;-68
2023/01/17 02:42:36;;;;;;;7.45;1.80;;;3.50;99.90;;;;;;5104608;28;20048;-68
2023/01/17 02:45:03;;;;;;;8.93;2.30;;;3.50;99.90;;;;;;5109732;28;20114;-69
2023/01/17 02:47:30;;;;;;;7.53;1.98;;;3.50;99.90;;;;;;5069843;28;20048;-67
2023/01/17 02:50:05;;;;;;;10.52;1.90;;;3.50;99.90;;;;;;5088571;28;20633;-68
2023/01/17 02:53:12;;;;;;;11.25;1.92;;;3.40;99.90;;;;;;5109554;28;20088;-68
2023/01/17 02:55:47;;;;;;;10.43;2.15;;;3.40;99.90;;;;;;5091820;28;20075;-74
2023/01/17 02:58:39;;;;;;;11.20;2.08;;;3.40;99.90;;;;;;5106995;28;20036;-67
2023/01/17 03:01:11;;;;;;;11.43;2.33;;;3.40;99.90;;;;;;5090296;28;20067;-68
2023/01/17 03:03:46;;;;;;;9.77;1.98;;;3.40;99.90;;;;;;5081561;28;20052;-74
2023/01/17 03:06:22;;;;;;;7.75;1.88;;;3.40;99.90;;;;;;5090158;28;20051;-67
2023/01/17 03:08:49;;;;;;;8.20;1.95;;;3.40;99.90;;;;;;5101972;28;20028;-68
2023/01/17 03:11:15;;;;;;;12.50;2.58;;;3.50;99.90;;;;;;5099553;28;20059;-69
2023/01/17 03:13:41;;;;;;;9.88;2.10;;;3.40;99.90;;;;;;5093973;28;20382;-69
2023/01/17 03:16:27;;;;;;;9.65;2.58;;;3.50;99.90;;;;;;5096531;28;20089;-68
2023/01/17 03:18:53;;;;;;;11.45;2.15;;;3.40;99.90;;;;;;5101562;28;20397;-68
2023/01/17 03:21:20;;;;;;;11.07;2.20;;;3.40;99.90;;;;;;5092115;28;20054;-68
2023/01/17 03:23:46;;;;;;;13.32;2.33;;;3.40;99.90;;;;;;5080075;28;20051;-71
2023/01/17 03:26:11;;;;;;;11.13;2.58;;;3.30;99.90;;;;;;5078276;28;20378;-69
2023/01/17 03:28:37;;;;;;;16.63;2.05;;;3.30;99.90;;;;;;5109834;28;20043;-68
2023/01/17 03:31:03;;;;;;;11.30;2.08;;;3.30;99.90;;;;;;5094650;28;20577;-68
2023/01/17 03:33:29;;;;;;;14.35;2.28;;;3.30;99.90;;;;;;5091755;28;20047;-68
2023/01/17 03:35:57;;;;;;;11.18;2.40;;;3.30;99.90;;;;;;5098110;28;20059;-68
2023/01/17 03:38:24;;;;;;;12.80;1.70;;;3.30;99.90;;;;;;5071203;28;20058;-68
2023/01/17 03:40:50;;;;;;;10.98;2.03;;;3.30;99.90;;;;;;5105465;28;20440;-71
2023/01/17 03:43:15;;;;;;;12.85;2.38;;;3.30;99.90;;;;;;5065132;28;20039;-68
2023/01/17 03:45:41;;;;;;;8.27;1.92;;;3.30;99.90;;;;;;5072012;28;20485;-68
2023/01/17 03:48:07;;;;;;;9.93;2.03;;;3.40;99.90;;;;;;5111100;28;20047;-68
2023/01/17 03:50:32;;;;;;;11.32;2.08;;;3.20;99.90;;;;;;5104575;28;20048;-68
2023/01/17 03:52:58;;;;;;;10.32;2.25;;;3.20;99.90;;;;;;5104046;28;20047;-69
2023/01/17 03:55:24;;;;;;;13.45;3.03;;;3.20;99.90;;;;;;5100872;28;20519;-69
2023/01/17 03:57:50;;;;;;;9.07;2.00;;;3.10;99.90;;;;;;5109338;28;20052;-68
2023/01/17 04:00:16;;;;;;;13.57;2.28;;;3.20;99.90;;;;;;5099433;28;20046;-68
2023/01/17 04:02:41;;;;;;;14.40;2.78;;;3.10;99.90;;;;;;5083550;28;20043;-68
2023/01/17 04:05:08;;;;;;;17.23;2.35;;;3.10;99.90;;;;;;5110565;28;20130;-69
2023/01/17 04:07:33;;;;;;;9.00;1.98;;;3.00;99.90;;;;;;5111845;28;20046;-68
2023/01/17 04:09:59;;;;;;;11.32;2.10;;;3.00;99.90;;;;;;5112715;28;20405;-68
2023/01/17 04:12:25;;;;;;;11.10;1.98;;;3.00;99.90;;;;;;5076731;28;20127;-67
2023/01/17 04:14:50;;;;;;;11.80;2.05;;;3.00;99.90;;;;;;5085442;28;20040;-68
2023/01/17 04:17:18;;;;;;;10.43;2.30;;;3.00;99.90;;;;;;5073575;28;20047;-68
2023/01/17 04:19:44;;;;;;;7.93;2.30;;;3.20;99.90;;;;;;5113349;28;20096;-70
2023/01/17 04:22:10;;;;;;;15.68;2.38;;;2.90;99.90;;;;;;5108568;28;20047;-68
2023/01/17 04:24:36;;;;;;;10.23;1.92;;;2.90;99.90;;;;;;5084869;28;20492;-68
2023/01/17 04:27:03;;;;;;;11.55;2.00;;;2.80;99.90;;;;;;5089773;28;20055;-68
2023/01/17 04:29:29;;;;;;;9.25;2.15;;;2.80;99.90;;;;;;5112610;28;20091;-68
2023/01/17 04:31:55;;;;;;;8.35;2.00;;;2.80;99.90;;;;;;5112489;28;20087;-68
2023/01/17 04:34:21;;;;;;;6.47;1.60;;;2.80;99.90;;;;;;5088226;28;20067;-68
2023/01/17 04:36:47;;;;;;;9.05;2.13;;;2.70;99.90;;;;;;5104644;28;20089;-68
2023/01/17 04:39:12;;;;;;;9.70;1.80;;;2.70;99.90;;;;;;5111860;28;20036;-68
2023/01/17 04:41:38;;;;;;;9.75;2.10;;;2.70;99.90;;;;;;5103696;28;20054;-68
2023/01/17 04:44:04;;;;;;;12.77;2.53;;;2.70;99.90;;;;;;5107959;28;20594;-68
2023/01/17 04:46:30;;;;;;;9.38;1.80;;;2.60;99.90;;;;;;5094808;28;20069;-68
2023/01/17 04:48:55;;;;;;;12.02;2.05;;;2.60;99.90;;;;;;5085661;28;20401;-68
2023/01/17 04:51:21;;;;;;;10.55;2.60;;;2.50;99.90;;;;;;5098131;28;20046;-68
2023/01/17 04:53:47;;;;;;;11.82;1.95;;;2.50;99.90;;;;;;5083078;28;20146;-68
2023/01/17 04:56:12;;;;;;;6.68;1.85;;;2.70;99.90;;;;;;5058026;28;20788;-67
2023/01/17 04:58:38;;;;;;;10.32;2.38;;;2.40;99.90;;;;;;5077222;28;20397;-67
2023/01/17 05:01:06;;;;;;;9.93;2.08;;;2.50;99.90;;;;;;5097144;28;20052;-68
2023/01/17 05:03:33;;;;;;;7.45;2.05;;;2.40;99.90;;;;;;5102925;28;20491;-68
2023/01/17 05:05:59;;;;;;;12.93;1.85;;;2.70;99.90;;;;;;5073726;28;20044;-68
2023/01/17 05:08:25;;;;;;;8.85;2.50;;;2.40;99.90;;;;;;5093486;28;20460;-71
2023/01/17 05:10:51;;;;;;;10.88;2.30;;;2.30;99.90;;;;;;5102798;28;20070;-68
2023/01/17 05:13:17;;;;;;;7.80;1.85;;;2.30;99.90;;;;;;5104894;28;20082;-68
2023/01/17 05:15:43;;;;;;;12.82;2.25;;;2.40;99.90;;;;;;5063476;28;20079;-67
2023/01/17 05:18:15;;;;;;;9.35;2.38;;;2.30;99.90;;;;;;5076654;28;20042;-69
2023/01/17 05:20:41;;;;;;;10.13;2.67;;;2.30;99.90;;;;;;5105911;28;20043;-68
2023/01/17 05:23:07;;;;;;;10.27;2.25;;;2.90;99.90;;;;;;5097614;28;20499;-68
2023/01/17 05:25:34;;;;;;;7.97;2.17;;;2.30;99.90;;;;;;5069091;28;20085;-67
2023/01/17 05:28:00;;;;;;;8.50;2.25;;;2.30;99.90;;;;;;5100714;28;20074;-68
2023/01/17 05:30:28;;;;;;;7.28;2.00;;;2.30;99.90;;;;;;5107722;28;20064;-68
2023/01/17 05:32:55;;;;;;;14.75;2.30;;;2.60;99.90;;;;;;5081271;28;20060;-68
2023/01/17 05:35:23;;;;;;;9.07;1.92;;;2.20;99.90;;;;;;5103636;28;20074;-68
2023/01/17 05:37:50;;;;;;;9.73;2.03;;;2.20;99.90;;;;;;5097924;28;20051;-68
2023/01/17 05:40:17;;;;;;;7.18;1.83;;;;;;;;;;5109033;28;20040;-67
2023/01/17 05:42:46;;;;;;;8.85;1.90;;;;;;;;;;5077626;28;20047;-68
2023/01/17 05:45:15;;;;;;;9.55;2.20;;;;;;;;;;5111359;28;20051;-67
2023/01/17 05:47:42;;;;;;;13.50;2.17;;;;;;;;;;5110163;28;20071;-69
2023/01/17 05:50:09;;;;;;;10.55;1.77;;;;;;;;;;5111076;28;20093;-67
2023/01/17 05:52:35;;;;;;;9.30;2.10;;;;;;;;;;5096343;28;20062;-68
2023/01/17 05:55:01;;;;;;;7.22;1.80;;;;;;;;;;5111197;28;20055;-73
2023/01/17 05:57:27;;;;;;;5.55;1.23;;;;;;;;;;5094309;28;20056;-67
2023/01/17 05:59:53;;;;;;;7.75;1.77;;;;;;;;;;5096422;28;20062;-68
2023/01/17 06:02:19;;;;;;;9.93;1.90;;;;;;;;;;5109150;28;20061;-67
2023/01/17 06:04:45;;;;;;;5.00;1.40;;;;;;;;;;5111084;28;20052;-67
2023/01/17 06:07:11;;;;;;;6.13;1.70;;;;;;;;;;5083954;28;20063;-68
2023/01/17 06:09:37;;;;;;;6.22;1.65;;;;;;;;;;5102940;28;20533;-67
2023/01/17 06:12:04;;;;;;;7.40;1.92;;;;;;;;;;5106957;28;20078;-73
2023/01/17 06:14:30;;;;;;;7.57;2.17;;;;;;;;;;5100912;28;20051;-67
2023/01/17 06:16:56;;;;;;;5.65;1.73;;;;;;;;;;5088091;28;20047;-70
2023/01/17 06:19:22;;;;;;;7.13;1.80;;;;;;;;;;5084410;28;20629;-67
2023/01/17 06:21:47;;;;;;;14.27;2.42;;;2.20;99.90;;;;;;5086231;28;20080;-68
2023/01/17 06:24:14;;;;;;;9.05;2.00;;;1.60;99.90;;;;;;5095873;28;20476;-68
2023/01/17 06:26:42;;;;;;;7.55;1.88;;;1.70;99.90;;;;;;5110654;28;20047;-67
2023/01/17 06:29:08;;;;;;;8.65;1.80;;;1.80;99.90;;;;;;5082843;28;20451;-73
2023/01/17 06:31:35;;;;;;;11.27;2.30;;;1.60;99.90;;;;;;5092731;28;20147;-67
2023/01/17 06:34:02;;;;;;;6.93;1.90;;;1.60;99.90;;;;;;5080731;28;20177;-67
2023/01/17 06:36:28;;;;;;;6.00;1.77;;;1.70;99.90;;;;;;5089157;28;20040;-67
2023/01/17 06:38:54;;;;;;;8.00;2.08;;;1.60;99.90;;;;;;5101283;28;20038;-67
2023/01/17 06:41:19;;;;;;;9.43;1.90;;;1.60;99.90;;;;;;5092165;28;20100;-67
2023/01/17 06:43:45;;;;;;;9.75;2.08;;;1.60;99.90;;;;;;5092418;28;20044;-70
2023/01/17 06:46:11;;;;;;;8.27;2.03;;;1.60;99.90;;;;;;5100749;28;20092;-67
2023/01/17 06:48:37;;;;;;;5.80;2.30;;;1.60;99.90;;;;;;5071463;28;20039;-68
2023/01/17 06:51:03;;;;;;;10.05;1.95;;;1.50;99.90;;;;;;5091772;28;20035;-66
2023/01/17 06:53:28;;;;;;;12.00;2.50;;;1.50;99.90;;;;;;5091289;28;20128;-66
2023/01/17 06:55:57;;;;;;;6.57;1.67;;;1.50;99.90;;;;;;5088685;28;20044;-66
2023/01/17 06:58:23;;;;;;;10.27;2.20;;;1.60;99.90;;;;;;5084204;28;20059;-66
2023/01/17 07:00:48;;;;;;;8.25;2.40;;;1.50;99.90;;;;;;5096842;28;20044;-68
2023/01/17 07:03:21;;;;;;;8.88;2.47;;;1.50;99.90;;;;;;5080268;28;20067;-67
2023/01/17 07:05:47;;;;;;;10.02;2.45;;;1.50;99.90;;;;;;5105850;28;20093;-67
2023/01/17 07:08:15;;;;;;;7.90;2.60;;;1.50;99.90;;;;;;5109856;28;20047;-73
2023/01/17 07:10:43;;;;;;;12.00;2.92;;;1.60;99.90;;;;;;5100859;28;20069;-68
2023/01/17 07:13:09;;;;;;;7.80;2.30;;;1.60;99.90;;;;;;5114757;28;20127;-67
2023/01/17 07:15:35;;;;;;;6.20;2.03;;;1.60;99.90;;;;;;5083752;28;20055;-66
2023/01/17 07:18:02;;;;;;;11.52;2.65;;;1.60;99.90;;;;;;5044876;28;20052;-67
2023/01/17 07:20:28;;;;;;;6.80;1.90;;;1.70;99.90;;;;;;5103201;28;20100;-67
2023/01/17 07:22:54;;;;;;;8.23;1.90;;;1.60;99.90;;;;;;5112991;28;20488;-66
2023/01/17 07:25:19;;;;;;;9.05;2.15;;;1.60;99.90;;;;;;5110539;28;20095;-69
2023/01/17 07:27:45;;;;;;;4.78;1.70;;;1.60;99.90;;;;;;5095719;28;20178;-66
2023/01/17 07:30:12;;;;;;;9.35;2.03;;;1.60;99.90;;;;;;5086603;28;20071;-67
2023/01/17 07:32:38;;;;;;;8.60;2.80;;;1.60;99.90;;;;;;5110597;28;20051;-67
2023/01/17 07:35:05;;;;;;;8.45;2.15;;;1.60;99.90;;;;;;5108040;28;20051;-66
2023/01/17 07:37:30;;;;;;;6.95;2.20;;;1.60;99.90;;;;;;5110430;28;20556;-69
2023/01/17 07:39:56;;;;;;;9.82;2.08;;;1.50;99.90;;;;;;5112152;28;20035;-66
2023/01/17 07:42:22;;;;;;;7.97;2.05;;;2.10;99.90;;;;;;5091148;28;20484;-67
2023/01/17 07:44:47;;;;;;;10.43;2.33;;;1.50;99.90;;;;;;5104444;28;20039;-67
2023/01/17 07:47:13;;;;;;;8.23;2.13;;;1.60;99.90;;;;;;5092751;28;20140;-67
2023/01/17 07:49:39;;;;;;;10.05;2.50;;;1.60;99.90;;;;;;5108336;28;20040;-67
2023/01/17 07:52:08;;;;;;;7.20;1.80;;;1.60;99.90;;;;;;5111898;28;20157;-68
2023/01/17 07:54:34;;;;;;;9.23;1.75;;;1.60;99.90;;;;;;5111445;28;20044;-67
2023/01/17 07:57:00;;;;;;;7.97;1.98;;;1.60;99.90;;;;;;5091540;28;20047;-67
2023/01/17 07:59:26;;;;;;;12.60;5.47;;;1.70;99.90;;;;;;5113408;28;20114;-67
2023/01/17 08:01:52;;;;;;;7.38;2.00;;;1.70;99.90;;;;;;5111974;28;20036;-67
2023/01/17 08:04:17;;;;;;;9.32;1.92;;;1.70;99.90;;;;;;5091922;28;20048;-66
2023/01/17 08:06:46;;;;;;;6.57;1.83;;;1.70;99.90;;;;;;5070085;28;20051;-68
2023/01/17 08:09:12;;;;;;;6.05;1.70;;;1.60;99.90;;;;;;5104843;28;20083;-66
2023/01/17 08:11:38;;;;;;;8.88;1.63;;;1.60;99.90;;;;;;5108372;28;20036;-66
2023/01/17 08:14:04;;;;;;;8.20;1.65;;;1.60;99.90;;;;;;5109985;28;20059;-66
2023/01/17 08:16:29;;;;;;;10.63;2.40;;;1.70;99.90;;;;;;5111191;28;20079;-66
2023/01/17 08:18:55;;;;;;;7.82;2.53;;;1.60;99.90;;;;;;5097359;28;20119;-65
2023/01/17 08:21:22;;;;;;;8.52;1.95;;;2.20;99.90;;;;;;5111281;28;20039;-66
2023/01/17 08:23:51;;;;;;;5.68;1.67;;;1.60;99.90;;;;;;5085582;28;20039;-66
2023/01/17 08:26:21;;;;;;;6.40;1.98;;;1.70;99.90;;;;;;5099820;28;20044;-65
2023/01/17 08:29:07;;;;;;;10.38;2.08;;;1.60;99.90;;;;;;5100163;28;20068;-68
2023/01/17 08:31:34;;;;;;;5.95;1.90;;;1.50;99.90;;;;;;5106286;28;20551;-66
2023/01/17 08:33:59;;;;;;;8.68;1.90;;;1.50;99.90;;;;;;5092836;28;20051;-66
2023/01/17 08:36:27;;;;;;;9.40;1.75;;;1.50;99.90;;;;;;5112566;28;20051;-71
2023/01/17 08:38:53;;;;;;;7.65;1.60;;;1.60;99.90;;;;;;5109208;28;20397;-66
2023/01/17 08:41:23;;;;;;;8.75;1.90;;;1.60;99.90;;;;;;5091563;28;20126;-66
2023/01/17 08:43:50;;;;;;;8.23;1.80;;;1.70;99.90;;;;;;5101485;28;20054;-66
2023/01/17 08:46:17;;;;;;;10.00;1.92;;;2.10;99.90;;;;;;5099749;28;20039;-65
2023/01/17 08:48:43;;;;;;;8.25;2.33;;;1.70;99.90;;;;;;5101419;28;20104;-66
2023/01/17 08:51:10;;;;;;;8.00;2.03;;;1.90;99.90;;;;;;5104318;28;20538;-66
2023/01/17 08:53:35;;;;;;;6.78;1.65;;;1.80;99.90;;;;;;5108489;28;20051;-66
2023/01/17 08:56:03;;;;;;;8.40;1.75;;;1.80;99.90;;;;;;5106771;28;21574;-67
2023/01/17 08:58:30;;;;;;;7.95;1.63;;;1.90;99.90;;;;;;5089426;28;20550;-72
2023/01/17 09:01:05;;;;;;;8.73;2.22;;;2.00;99.90;;;;;;5110357;28;20114;-65
2023/01/17 09:03:32;;;;;;;8.85;1.90;;;2.10;99.90;;;;;;5109376;28;20392;-73
2023/01/17 09:06:13;;;;;;;6.47;2.05;;;2.20;99.90;;;;;;5094095;28;20508;-67
2023/01/17 09:08:40;;;;;;;6.43;1.67;;;2.30;99.90;;;;;;5095735;28;20504;-73
2023/01/17 09:11:09;;;;;;;9.60;1.92;;;2.30;99.90;;;;;;5082982;28;20485;-68
2023/01/17 09:13:34;;;;;;;7.30;1.98;;;2.40;99.90;;;;;;5100985;28;20048;-68
2023/01/17 09:16:00;;;;;;;7.70;1.80;;;2.30;99.90;;;;;;5094746;28;20101;-68
2023/01/17 09:18:27;;;;;;;5.05;1.60;;;2.30;99.90;;;;;;5084861;28;20093;-67
2023/01/17 09:20:54;;;;;;;5.20;2.08;;;2.30;99.90;;;;;;5084694;28;20065;-68
2023/01/17 09:23:28;;;;;;;8.88;1.98;;;2.90;99.90;;;;;;5086501;28;20411;-69
2023/01/17 09:25:58;;;;;;;5.43;1.73;;;2.30;99.90;;;;;;5088587;28;20556;-66
2023/01/17 09:28:25;;;;;;;8.27;2.38;;;2.30;99.90;;;;;;5107529;28;20289;-67
2023/01/17 09:30:51;;;;;;;8.40;2.97;;;2.40;99.90;;;;;;5110752;28;20060;-67
2023/01/17 09:33:17;;;;;;;7.65;2.30;;;2.40;99.90;;;;;;5108152;28;20069;-68
2023/01/17 09:35:44;;;;;;;6.97;2.45;;;2.40;99.90;;;;;;5087195;28;20105;-67
2023/01/17 09:38:10;;;;;;;9.80;1.85;;;2.50;99.90;;;;;;5107929;28;20404;-72
2023/01/17 09:40:42;;;;;;;7.00;1.63;;;2.70;99.90;;;;;;5122824;27;20131;-67
2023/01/17 09:43:20;;;;;;;4.85;1.70;;;2.80;99.90;;;;;;5103057;28;20086;-66
2023/01/17 09:45:46;;;;;;;4.40;1.50;;;2.70;99.90;;;;;;5107383;28;20051;-67
2023/01/17 09:48:20;;;;;;;5.10;1.30;;;2.70;99.90;;;;;;5090046;28;20040;-69
2023/01/17 09:50:57;;;;;;;6.80;1.47;;;2.90;99.90;;;;;;5088595;28;20089;-67
2023/01/17 09:53:23;;;;;;;4.38;1.80;;;2.80;99.90;;;;;;5080415;28;20329;-68
2023/01/17 09:55:51;;;;;;;6.03;1.08;;;2.80;99.90;;;;;;5109104;28;20433;-65
2023/01/17 09:58:33;;;;;;;1.58;0.80;;;2.80;99.90;;;;;;5111358;28;20051;-67
2023/01/17 10:01:24;;;;;;;4.40;1.27;;;3.00;99.90;;;;;;5100497;28;20475;-66
2023/01/17 10:04:10;;;;;;;0.68;0.65;;;2.90;99.90;;;;;;5109729;28;20043;-67
2023/01/17 10:07:00;;;;;;;1.83;1.00;;;2.90;99.90;;;;;;5096377;28;20051;-68
2023/01/17 10:09:51;;;;;;;2.70;0.90;;;2.90;99.90;;;;;;5089636;28;20074;-66
2023/01/17 10:12:44;;;;;;;2.45;0.82;;;3.00;99.90;;;;;;5104590;28;20074;-66
2023/01/17 10:15:24;;;;;;;0.93;0.57;;;3.20;99.90;;;;;;5080202;28;20168;-67
2023/01/17 10:18:25;;;;;;;2.55;1.05;;;3.10;99.90;;;;;;5110341;28;20595;-67
2023/01/17 10:21:11;;;;;;;3.30;0.75;;;3.20;99.90;;;;;;5109756;28;20043;-67
2023/01/17 10:23:53;;;;;;;1.73;0.90;;;3.20;99.90;;;;;;5090230;28;20067;-66
2023/01/17 10:26:26;;;;;;;3.60;1.10;;;3.30;99.90;;;;;;5099630;28;20089;-68
2023/01/17 10:28:58;;;;;;;4.00;0.82;;;3.30;99.90;;;;;;5099188;28;20044;-66
2023/01/17 10:31:34;;;;;;;7.13;1.92;;;3.20;99.90;;;;;;5108982;28;20067;-67
2023/01/17 10:34:12;;;;;;;5.28;0.95;;;3.20;99.90;;;;;;5109046;28;20051;-66
2023/01/17 10:36:41;;;;;;;4.15;1.20;;;3.10;99.90;;;;;;5107373;28;20051;-66
2023/01/17 10:39:21;;;;;;;4.60;1.20;;;3.00;99.90;;;;;;5110326;28;20071;-66
2023/01/17 10:42:15;;;;;;;4.90;1.10;;;2.90;99.90;;;;;;5102977;28;20040;-66
2023/01/17 10:44:52;;;;;;;4.78;1.20;;;2.80;99.90;;;;;;5109145;28;20446;-66
2023/01/17 10:47:21;;;;;;;3.90;1.00;;;2.80;99.90;;;;;;5112304;28;20055;-67
2023/01/17 10:49:53;;;;;;;2.63;0.70;;;2.90;99.90;;;;;;5086350;28;20156;-68
2023/01/17 10:52:34;;;;;;;1.05;0.63;;;3.20;99.90;;;;;;5114189;28;20042;-67
2023/01/17 10:55:24;;;;;;;5.25;0.90;;;3.30;99.90;;;;;;5096551;28;20043;-67
2023/01/17 10:57:51;;;;;;;2.30;0.90;;;3.30;99.90;;;;;;5111797;28;20056;-67
2023/01/17 11:00:42;;;;;;;2.97;0.90;;;3.50;99.90;;;;;;5096498;28;20032;-67
2023/01/17 11:03:14;;;;;;;4.40;1.00;;;3.60;99.90;;;;;;5088851;28;20046;-67
2023/01/17 11:05:41;;;;;;;3.30;0.98;;;3.70;99.90;;;;;;5083226;28;20047;-67
2023/01/17 11:08:13;;;;;;;4.78;1.27;;;3.70;99.90;;;;;;5118738;27;20669;-65
2023/01/17 11:10:43;;;;;;;4.95;1.48;;;4.10;99.90;;;;;;5100942;28;20133;-65
2023/01/17 11:13:37;;;;;;;2.30;0.90;;;3.80;99.90;;;;;;5110169;28;20097;-66
2023/01/17 11:16:08;;;;;;;12.63;1.70;;;3.70;99.90;;;;;;5103418;28;20082;-68
2023/01/17 11:18:38;;;;;;;6.03;1.63;;;3.70;99.90;;;;;;5107973;28;20051;-67
2023/01/17 11:21:17;;;;;;;2.92;0.93;;;3.70;99.90;;;;;;5112290;28;20093;-68
2023/01/17 11:23:45;;;;;;;6.88;1.38;;;3.80;99.90;;;;;;5092473;28;20443;-67
2023/01/17 11:26:26;;;;;;;5.07;1.65;;;3.70;99.90;;;;;;5092954;28;20392;-67
2023/01/17 11:28:52;;;;;;;5.82;1.80;;;3.70;99.90;;;;;;5111046;28;20132;-66
2023/01/17 11:31:18;;;;;;;7.03;1.70;;;3.80;99.90;;;;;;5095098;28;20064;-66
2023/01/17 11:33:54;;;;;;;7.75;1.92;;;3.90;99.90;;;;;;5109616;28;20375;-66
2023/01/17 11:36:31;;;;;;;4.07;1.20;;;4.00;99.90;;;;;;5092831;28;20832;-66
2023/01/17 11:39:19;;;;;;;4.10;1.35;;;4.00;99.90;;;;;;5072039;28;20052;-66
2023/01/17 11:41:47;;;;;;;5.50;1.45;;;4.00;99.90;;;;;;5112372;28;20039;-67
2023/01/17 11:44:28;;;;;;;4.38;1.30;;;4.10;99.90;;;;;;5093880;28;20456;-66
2023/01/17 11:47:12;;;;;;;2.88;1.15;;;4.20;99.90;;;;;;5081230;28;20082;-66
2023/01/17 11:49:47;;;;;;;6.13;1.65;;;4.20;99.90;;;;;;5114038;28;20046;-67
2023/01/17 11:52:25;;;;;;;6.07;1.73;;;4.20;99.90;;;;;;5107202;28;20048;-67
2023/01/17 11:54:53;;;;;;;4.60;1.70;;;4.30;99.90;;;;;;5074744;28;20396;-66
2023/01/17 11:57:20;;;;;;;6.50;1.52;;;4.30;99.90;;;;;;5111950;28;20051;-68
2023/01/17 11:59:46;;;;;;;4.82;1.75;;;4.50;99.90;;;;;;5107984;28;20047;-67
2023/01/17 12:02:43;;;;;;;6.90;1.70;;;4.40;99.90;;;;;;5113575;28;20500;-66
2023/01/17 12:05:40;;;;;;;4.03;1.35;;;4.40;99.90;;;;;;5088648;28;20067;-67
2023/01/17 12:08:20;;;;;;;6.50;1.55;;;4.40;99.90;;;;;;5094166;28;20496;-67
2023/01/17 12:11:02;;;;;;;4.95;1.50;;;4.40;99.90;;;;;;5104206;28;20118;-65
2023/01/17 12:14:01;;;;;;;4.10;1.40;;;4.50;99.90;;;;;;5107623;28;20043;-69
2023/01/17 12:16:45;;;;;;;7.10;1.63;;;4.60;99.90;;;;;;5092109;28;20123;-69
2023/01/17 12:19:31;;;;;;;5.93;2.22;;;4.70;99.90;;;;;;5100651;28;20040;-68
2023/01/17 12:22:14;;;;;;;7.10;1.75;;;4.70;99.90;;;;;;5107855;28;20501;-68
2023/01/17 12:24:51;;;;;;;5.15;1.73;;;4.70;99.90;;;;;;5113783;28;20112;-68
2023/01/17 12:27:33;;;;;;;5.05;1.77;;;4.60;99.90;;;;;;5090567;28;20047;-68
2023/01/17 12:30:07;;;;;;;6.72;1.60;;;4.60;99.90;;;;;;5090368;28;20044;-69
2023/01/17 12:32:33;;;;;;;;;;;4.50;99.90;;;;;;5113000;28;20405;-69
2023/01/17 12:35:45;;;;;;;7.60;1.70;;;4.50;99.90;;;;;;5112876;28;19927;-68
2023/01/17 12:38:22;;;;;;;4.50;1.70;;;4.50;99.90;;;;;;5014982;28;20054;-70
2023/01/17 12:41:15;;;;;;;7.07;1.80;;;4.50;99.90;;;;;;5092977;28;20443;-68
2023/01/17 12:43:43;;;;;;;4.65;2.20;;;4.50;99.90;;;;;;5069042;28;20105;-69
2023/01/17 12:46:25;;;;;;;6.53;1.50;;;4.50;99.90;;;;;;5112578;28;20451;-69
2023/01/17 12:49:07;;;;;;;8.95;1.77;;;4.60;99.90;;;;;;5087937;28;20547;-69
2023/01/17 12:51:38;;;;;;;6.35;1.90;;;5.00;99.90;;;;;;5113079;28;20039;-69
2023/01/17 12:54:23;;;;;;;6.88;1.58;;;4.70;99.90;;;;;;5108640;28;20044;-68
2023/01/17 12:56:56;;;;;;;7.75;1.30;;;4.70;99.90;;;;;;5092032;28;20043;-68
2023/01/17 12:59:36;;;;;;;5.07;1.33;;;4.70;99.90;;;;;;5092725;28;20057;-68
2023/01/17 13:02:19;;;;;;;3.50;1.20;;;4.70;99.90;;;;;;5080118;28;20480;-69
2023/01/17 13:05:14;;;;;;;3.95;1.40;;;4.80;99.90;;;;;;5112936;28;20066;-68
2023/01/17 13:07:56;;;;;;;5.15;1.27;;;4.80;99.90;;;;;;5063274;28;20066;-67
2023/01/17 13:10:50;;;;;;;7.00;1.55;;;4.80;99.90;;;;;;5106534;28;20059;-68
2023/01/17 13:13:24;;;;;;;2.67;1.45;;;4.80;99.90;;;;;;5105858;28;20097;-68
2023/01/17 13:16:03;;;;;;;;;;;4.80;99.90;;;;;;5113426;28;20047;-68
2023/01/17 13:18:32;;;;;;;4.35;1.40;;;4.80;99.90;;;;;;5075413;28;20055;-68
2023/01/17 13:21:31;;;;;;;4.82;1.35;;;4.80;99.90;;;;;;5070592;28;20069;-68
2023/01/17 13:24:02;;;;;;;6.18;1.80;;;4.80;99.90;;;;;;5108183;28;20048;-68
2023/01/17 13:27:07;;;;;;;5.63;1.40;;;4.80;99.90;;;;;;5101937;28;20088;-68
2023/01/17 13:29:32;;;;;;;4.13;1.25;;;4.70;99.90;;;;;;5080238;28;20044;-69
2023/01/17 13:32:04;;;;;;;7.78;1.52;;;4.60;99.90;;;;;;5086613;28;20043;-70
2023/01/17 13:34:53;;;;;;;7.60;1.77;;;4.60;99.90;;;;;;5062835;28;20039;-70
2023/01/17 13:37:38;;;;;;;4.32;1.30;;;4.60;99.90;;;;;;5097234;28;20041;-69
2023/01/17 13:40:25;;;;;;;3.85;1.35;;;4.60;99.90;;;;;;5091714;28;20044;-69
2023/01/17 13:43:01;;;;;;;4.53;1.13;;;4.50;99.90;;;;;;5098857;28;20051;-69
2023/01/17 13:45:35;;;;;;;3.75;1.60;;;4.50;99.90;;;;;;5079348;28;20074;-69
2023/01/17 13:48:13;;;;;;;8.17;1.60;;;4.50;99.90;;;;;;5111523;28;20385;-69
2023/01/17 13:50:55;;;;;;;3.72;1.48;;;4.50;99.90;;;;;;5092629;28;20361;-72
2023/01/17 13:53:33;;;;;;;4.68;1.27;;;4.50;99.90;;;;;;5063904;28;20086;-69
2023/01/17 13:56:14;;;;;;;5.38;1.90;;;4.50;99.90;;;;;;5092628;28;20044;-70
2023/01/17 13:58:48;;;;;;;3.00;1.17;;;4.40;99.90;;;;;;5087864;28;20127;-69
2023/01/17 14:01:37;;;;;;;5.20;1.60;;;4.40;99.90;;;;;;5102169;28;20051;-69
2023/01/17 14:04:08;;;;;;;7.88;2.00;;;4.40;99.90;;;;;;5072536;28;20552;-69
2023/01/17 14:06:45;;;;;;;5.68;1.40;;;4.30;99.90;;;;;;5105963;28;20048;-68
2023/01/17 14:09:25;;;;;;;5.80;1.60;;;4.30;99.90;;;;;;5109520;28;20130;-69
2023/01/17 14:12:00;;;;;;;4.53;1.63;;;4.30;99.90;;;;;;5085934;28;20039;-68
2023/01/17 14:14:41;;;;;;;4.15;1.55;;;4.30;99.90;;;;;;5090907;28;20052;-67
2023/01/17 14:17:30;;;;;;;4.13;1.27;;;4.30;99.90;;;;;;5090634;28;20077;-67
2023/01/17 14:20:05;;;;;;;3.72;1.40;;;4.30;99.90;;;;;;5097986;28;20113;-67
2023/01/17 14:22:34;;;;;;;4.00;1.88;;;4.30;99.90;;;;;;5106660;28;20060;-67
2023/01/17 14:25:16;;;;;;;6.78;1.80;;;4.30;99.90;;;;;;5103896;28;20093;-68
2023/01/17 14:27:41;;;;;;;5.43;1.48;;;4.30;99.90;;;;;;5075955;28;20052;-68
2023/01/17 14:30:17;;;;;;;4.93;1.50;;;4.40;99.90;;;;;;5103384;28;20063;-67
2023/01/17 14:33:00;;;;;;;11.95;9.73;;;4.30;99.90;;;;;;5110500;28;20108;-67
2023/01/17 14:35:31;;;;;;;5.63;1.40;;;4.30;99.90;;;;;;5097499;28;20070;-68
2023/01/17 14:38:01;;;;;;;3.50;1.30;;;4.30;99.90;;;;;;5076707;28;20059;-68
2023/01/17 14:40:30;;;;;;;2.40;1.20;;;4.30;99.90;;;;;;5067996;28;20075;-68
2023/01/17 14:43:06;;;;;;;3.05;1.38;;;4.20;99.90;;;;;;5109050;28;20031;-69
2023/01/17 14:45:34;;;;;;;5.35;1.67;;;4.20;99.90;;;;;;5090662;28;20051;-67